sensor_id;sensor_type;location;lat;lon;timestamp;P1;durP1;ratioP1;P2;durP2;ratioP2
45490;SDS011;31237;45.586;13.782;2023-06-19T00:00:44;7.13;;;4.28;;
45490;SDS011;31237;45.586;13.782;2023-06-19T00:03:10;6.35;;;4.18;;
45490;SDS011;31237;45.586;13.782;2023-06-19T00:05:36;6.00;;;4.10;;
45490;SDS011;31237;45.586;13.782;2023-06-19T00:08:01;6.05;;;5.03;;
45490;SDS011;31237;45.586;13.782;2023-06-19T00:10:29;5.45;;;4.70;;
45490;SDS011;31237;45.586;13.782;2023-06-19T00:12:55;6.88;;;4.90;;
45490;SDS011;31237;45.586;13.782;2023-06-19T00:15:20;9.45;;;4.32;;
45490;SDS011;31237;45.586;13.782;2023-06-19T00:17:46;5.90;;;4.13;;
45490;SDS011;31237;45.586;13.782;2023-06-19T00:20:12;5.63;;;4.00;;
45490;SDS011;31237;45.586;13.782;2023-06-19T00:22:38;5.47;;;4.03;;
45490;SDS011;31237;45.586;13.782;2023-06-19T00:25:05;5.20;;;3.88;;
45490;SDS011;31237;45.586;13.782;2023-06-19T00:27:31;6.00;;;4.40;;
45490;SDS011;31237;45.586;13.782;2023-06-19T00:29:57;9.73;;;3.88;;
45490;SDS011;31237;45.586;13.782;2023-06-19T00:32:30;5.45;;;4.28;;
45490;SDS011;31237;45.586;13.782;2023-06-19T00:34:56;7.70;;;4.00;;
45490;SDS011;31237;45.586;13.782;2023-06-19T00:37:22;5.13;;;3.90;;
45490;SDS011;31237;45.586;13.782;2023-06-19T00:39:47;5.32;;;3.85;;
45490;SDS011;31237;45.586;13.782;2023-06-19T00:42:13;6.03;;;3.75;;
45490;SDS011;31237;45.586;13.782;2023-06-19T00:44:39;7.18;;;4.07;;
45490;SDS011;31237;45.586;13.782;2023-06-19T00:47:05;4.70;;;3.22;;
45490;SDS011;31237;45.586;13.782;2023-06-19T00:49:31;4.78;;;3.65;;
45490;SDS011;31237;45.586;13.782;2023-06-19T00:51:57;4.40;;;3.38;;
45490;SDS011;31237;45.586;13.782;2023-06-19T00:54:23;5.47;;;3.78;;
45490;SDS011;31237;45.586;13.782;2023-06-19T00:56:49;5.22;;;3.35;;
45490;SDS011;31237;45.586;13.782;2023-06-19T00:59:16;6.38;;;3.50;;
45490;SDS011;31237;45.586;13.782;2023-06-19T01:01:45;4.70;;;3.50;;
45490;SDS011;31237;45.586;13.782;2023-06-19T01:04:11;4.18;;;3.15;;
45490;SDS011;31237;45.586;13.782;2023-06-19T01:06:45;5.10;;;3.50;;
45490;SDS011;31237;45.586;13.782;2023-06-19T01:09:23;4.75;;;2.90;;
45490;SDS011;31237;45.586;13.782;2023-06-19T01:11:57;5.28;;;3.40;;
45490;SDS011;31237;45.586;13.782;2023-06-19T01:14:32;4.15;;;3.50;;
45490;SDS011;31237;45.586;13.782;2023-06-19T01:17:04;5.32;;;3.25;;
45490;SDS011;31237;45.586;13.782;2023-06-19T01:19:31;6.47;;;3.55;;
45490;SDS011;31237;45.586;13.782;2023-06-19T01:22:00;4.20;;;3.45;;
45490;SDS011;31237;45.586;13.782;2023-06-19T01:24:27;4.80;;;3.60;;
45490;SDS011;31237;45.586;13.782;2023-06-19T01:26:53;5.97;;;3.47;;
45490;SDS011;31237;45.586;13.782;2023-06-19T01:29:19;5.43;;;3.58;;
45490;SDS011;31237;45.586;13.782;2023-06-19T01:31:54;6.32;;;4.13;;
45490;SDS011;31237;45.586;13.782;2023-06-19T01:36:55;5.18;;;3.60;;
45490;SDS011;31237;45.586;13.782;2023-06-19T01:39:22;5.22;;;3.50;;
45490;SDS011;31237;45.586;13.782;2023-06-19T01:41:49;4.95;;;3.67;;
45490;SDS011;31237;45.586;13.782;2023-06-19T01:44:16;5.70;;;3.33;;
45490;SDS011;31237;45.586;13.782;2023-06-19T01:46:42;5.00;;;2.90;;
45490;SDS011;31237;45.586;13.782;2023-06-19T01:49:08;4.75;;;3.28;;
45490;SDS011;31237;45.586;13.782;2023-06-19T01:51:37;5.38;;;3.30;;
45490;SDS011;31237;45.586;13.782;2023-06-19T01:54:03;5.25;;;3.40;;
45490;SDS011;31237;45.586;13.782;2023-06-19T01:56:29;4.05;;;3.08;;
45490;SDS011;31237;45.586;13.782;2023-06-19T01:58:55;5.88;;;3.45;;
45490;SDS011;31237;45.586;13.782;2023-06-19T02:01:21;4.93;;;3.10;;
45490;SDS011;31237;45.586;13.782;2023-06-19T02:03:46;4.63;;;3.10;;
45490;SDS011;31237;45.586;13.782;2023-06-19T02:06:12;4.30;;;3.20;;
45490;SDS011;31237;45.586;13.782;2023-06-19T02:08:38;5.97;;;3.10;;
45490;SDS011;31237;45.586;13.782;2023-06-19T02:11:03;3.92;;;2.65;;
45490;SDS011;31237;45.586;13.782;2023-06-19T02:13:29;4.32;;;3.17;;
45490;SDS011;31237;45.586;13.782;2023-06-19T02:15:55;5.15;;;3.38;;
45490;SDS011;31237;45.586;13.782;2023-06-19T02:18:20;5.50;;;3.10;;
45490;SDS011;31237;45.586;13.782;2023-06-19T02:20:46;4.55;;;2.95;;
45490;SDS011;31237;45.586;13.782;2023-06-19T02:23:12;6.03;;;3.35;;
45490;SDS011;31237;45.586;13.782;2023-06-19T02:25:38;4.85;;;3.13;;
45490;SDS011;31237;45.586;13.782;2023-06-19T02:28:03;5.20;;;3.03;;
45490;SDS011;31237;45.586;13.782;2023-06-19T02:30:29;5.47;;;3.28;;
45490;SDS011;31237;45.586;13.782;2023-06-19T02:32:55;4.65;;;3.10;;
45490;SDS011;31237;45.586;13.782;2023-06-19T02:35:20;6.72;;;2.80;;
45490;SDS011;31237;45.586;13.782;2023-06-19T02:37:46;3.95;;;3.03;;
45490;SDS011;31237;45.586;13.782;2023-06-19T02:40:12;4.63;;;3.10;;
45490;SDS011;31237;45.586;13.782;2023-06-19T02:42:39;4.78;;;2.95;;
45490;SDS011;31237;45.586;13.782;2023-06-19T02:45:05;4.80;;;3.13;;
45490;SDS011;31237;45.586;13.782;2023-06-19T02:47:31;4.70;;;3.30;;
45490;SDS011;31237;45.586;13.782;2023-06-19T02:49:58;5.38;;;3.58;;
45490;SDS011;31237;45.586;13.782;2023-06-19T02:52:25;4.43;;;3.20;;
45490;SDS011;31237;45.586;13.782;2023-06-19T02:54:51;4.50;;;2.90;;
45490;SDS011;31237;45.586;13.782;2023-06-19T02:57:17;3.80;;;2.95;;
45490;SDS011;31237;45.586;13.782;2023-06-19T02:59:42;4.60;;;3.10;;
45490;SDS011;31237;45.586;13.782;2023-06-19T03:02:08;4.28;;;3.10;;
45490;SDS011;31237;45.586;13.782;2023-06-19T03:04:34;4.53;;;3.22;;
45490;SDS011;31237;45.586;13.782;2023-06-19T03:06:59;4.85;;;3.10;;
45490;SDS011;31237;45.586;13.782;2023-06-19T03:09:27;5.88;;;3.60;;
45490;SDS011;31237;45.586;13.782;2023-06-19T03:11:53;4.63;;;3.03;;
45490;SDS011;31237;45.586;13.782;2023-06-19T03:14:19;4.53;;;3.20;;
45490;SDS011;31237;45.586;13.782;2023-06-19T03:16:45;5.40;;;3.30;;
45490;SDS011;31237;45.586;13.782;2023-06-19T03:19:12;5.43;;;3.75;;
45490;SDS011;31237;45.586;13.782;2023-06-19T03:21:38;6.30;;;3.53;;
45490;SDS011;31237;45.586;13.782;2023-06-19T03:24:04;5.63;;;3.30;;
45490;SDS011;31237;45.586;13.782;2023-06-19T03:26:32;5.05;;;3.17;;
45490;SDS011;31237;45.586;13.782;2023-06-19T03:28:58;5.43;;;3.38;;
45490;SDS011;31237;45.586;13.782;2023-06-19T03:31:24;4.13;;;3.35;;
45490;SDS011;31237;45.586;13.782;2023-06-19T03:33:49;5.20;;;2.80;;
45490;SDS011;31237;45.586;13.782;2023-06-19T03:36:15;4.88;;;3.42;;
45490;SDS011;31237;45.586;13.782;2023-06-19T03:38:41;5.10;;;3.40;;
45490;SDS011;31237;45.586;13.782;2023-06-19T03:41:06;5.20;;;3.33;;
45490;SDS011;31237;45.586;13.782;2023-06-19T03:43:33;5.18;;;3.20;;
45490;SDS011;31237;45.586;13.782;2023-06-19T03:45:58;6.28;;;2.60;;
45490;SDS011;31237;45.586;13.782;2023-06-19T03:48:24;4.60;;;2.88;;
45490;SDS011;31237;45.586;13.782;2023-06-19T03:50:50;13.10;;;4.07;;
45490;SDS011;31237;45.586;13.782;2023-06-19T03:53:15;4.45;;;3.83;;
45490;SDS011;31237;45.586;13.782;2023-06-19T03:55:41;5.63;;;3.70;;
45490;SDS011;31237;45.586;13.782;2023-06-19T03:58:07;5.40;;;4.40;;
45490;SDS011;31237;45.586;13.782;2023-06-19T04:00:33;4.72;;;4.20;;
45490;SDS011;31237;45.586;13.782;2023-06-19T04:02:58;6.03;;;3.80;;
45490;SDS011;31237;45.586;13.782;2023-06-19T04:05:24;5.07;;;3.40;;
45490;SDS011;31237;45.586;13.782;2023-06-19T04:07:51;4.97;;;2.95;;
45490;SDS011;31237;45.586;13.782;2023-06-19T04:10:16;5.40;;;3.17;;
45490;SDS011;31237;45.586;13.782;2023-06-19T04:12:42;4.72;;;3.13;;
45490;SDS011;31237;45.586;13.782;2023-06-19T04:15:10;5.78;;;3.33;;
45490;SDS011;31237;45.586;13.782;2023-06-19T04:17:36;5.57;;;3.50;;
45490;SDS011;31237;45.586;13.782;2023-06-19T04:20:02;4.80;;;3.30;;
45490;SDS011;31237;45.586;13.782;2023-06-19T04:25:06;5.40;;;3.30;;
45490;SDS011;31237;45.586;13.782;2023-06-19T04:27:33;5.07;;;3.22;;
45490;SDS011;31237;45.586;13.782;2023-06-19T04:29:58;5.25;;;3.42;;
45490;SDS011;31237;45.586;13.782;2023-06-19T04:32:24;4.45;;;2.85;;
45490;SDS011;31237;45.586;13.782;2023-06-19T04:34:50;5.32;;;3.05;;
45490;SDS011;31237;45.586;13.782;2023-06-19T04:37:16;4.38;;;3.20;;
45490;SDS011;31237;45.586;13.782;2023-06-19T04:39:45;5.07;;;3.38;;
45490;SDS011;31237;45.586;13.782;2023-06-19T04:42:12;5.13;;;3.30;;
45490;SDS011;31237;45.586;13.782;2023-06-19T04:44:45;5.82;;;3.28;;
45490;SDS011;31237;45.586;13.782;2023-06-19T04:47:11;4.45;;;3.05;;
45490;SDS011;31237;45.586;13.782;2023-06-19T04:49:37;4.90;;;3.20;;
45490;SDS011;31237;45.586;13.782;2023-06-19T04:52:03;4.60;;;3.03;;
45490;SDS011;31237;45.586;13.782;2023-06-19T04:54:29;5.00;;;3.20;;
45490;SDS011;31237;45.586;13.782;2023-06-19T04:56:57;5.30;;;3.00;;
45490;SDS011;31237;45.586;13.782;2023-06-19T04:59:23;5.10;;;3.03;;
45490;SDS011;31237;45.586;13.782;2023-06-19T05:01:49;4.85;;;2.95;;
45490;SDS011;31237;45.586;13.782;2023-06-19T05:04:18;6.97;;;3.03;;
45490;SDS011;31237;45.586;13.782;2023-06-19T05:06:44;4.20;;;3.05;;
45490;SDS011;31237;45.586;13.782;2023-06-19T05:09:10;5.50;;;3.25;;
45490;SDS011;31237;45.586;13.782;2023-06-19T05:11:36;6.03;;;3.25;;
45490;SDS011;31237;45.586;13.782;2023-06-19T05:14:02;6.65;;;3.78;;
45490;SDS011;31237;45.586;13.782;2023-06-19T05:16:28;4.90;;;3.10;;
45490;SDS011;31237;45.586;13.782;2023-06-19T05:18:53;5.05;;;3.22;;
45490;SDS011;31237;45.586;13.782;2023-06-19T05:21:19;5.03;;;3.00;;
45490;SDS011;31237;45.586;13.782;2023-06-19T05:23:45;4.72;;;3.28;;
45490;SDS011;31237;45.586;13.782;2023-06-19T05:26:15;4.80;;;3.10;;
45490;SDS011;31237;45.586;13.782;2023-06-19T05:28:47;4.28;;;3.20;;
45490;SDS011;31237;45.586;13.782;2023-06-19T05:31:14;4.20;;;2.90;;
45490;SDS011;31237;45.586;13.782;2023-06-19T05:33:40;5.13;;;3.30;;
45490;SDS011;31237;45.586;13.782;2023-06-19T05:36:06;5.78;;;3.05;;
45490;SDS011;31237;45.586;13.782;2023-06-19T05:38:32;5.05;;;3.30;;
45490;SDS011;31237;45.586;13.782;2023-06-19T05:40:58;4.68;;;3.10;;
45490;SDS011;31237;45.586;13.782;2023-06-19T05:43:24;4.93;;;3.10;;
45490;SDS011;31237;45.586;13.782;2023-06-19T05:45:51;3.80;;;2.92;;
45490;SDS011;31237;45.586;13.782;2023-06-19T05:48:17;5.20;;;3.40;;
45490;SDS011;31237;45.586;13.782;2023-06-19T05:50:43;5.25;;;3.35;;
45490;SDS011;31237;45.586;13.782;2023-06-19T05:53:09;4.85;;;3.42;;
45490;SDS011;31237;45.586;13.782;2023-06-19T05:55:34;5.15;;;3.65;;
45490;SDS011;31237;45.586;13.782;2023-06-19T05:58:01;4.60;;;3.72;;
45490;SDS011;31237;45.586;13.782;2023-06-19T06:00:27;5.75;;;3.90;;
45490;SDS011;31237;45.586;13.782;2023-06-19T06:02:55;4.57;;;3.60;;
45490;SDS011;31237;45.586;13.782;2023-06-19T06:05:24;5.20;;;3.30;;
45490;SDS011;31237;45.586;13.782;2023-06-19T06:07:51;5.45;;;3.35;;
45490;SDS011;31237;45.586;13.782;2023-06-19T06:10:18;5.53;;;3.92;;
45490;SDS011;31237;45.586;13.782;2023-06-19T06:12:45;4.68;;;3.35;;
45490;SDS011;31237;45.586;13.782;2023-06-19T06:15:11;4.85;;;3.72;;
45490;SDS011;31237;45.586;13.782;2023-06-19T06:17:36;5.28;;;3.20;;
45490;SDS011;31237;45.586;13.782;2023-06-19T06:20:02;6.18;;;3.47;;
45490;SDS011;31237;45.586;13.782;2023-06-19T06:22:34;6.50;;;3.58;;
45490;SDS011;31237;45.586;13.782;2023-06-19T06:25:00;4.90;;;3.42;;
45490;SDS011;31237;45.586;13.782;2023-06-19T06:27:25;5.32;;;3.33;;
45490;SDS011;31237;45.586;13.782;2023-06-19T06:29:51;5.75;;;3.33;;
45490;SDS011;31237;45.586;13.782;2023-06-19T06:32:17;4.38;;;3.10;;
45490;SDS011;31237;45.586;13.782;2023-06-19T06:34:43;4.28;;;2.95;;
45490;SDS011;31237;45.586;13.782;2023-06-19T06:37:09;5.68;;;3.50;;
45490;SDS011;31237;45.586;13.782;2023-06-19T06:39:35;4.70;;;3.10;;
45490;SDS011;31237;45.586;13.782;2023-06-19T06:42:00;6.53;;;3.55;;
45490;SDS011;31237;45.586;13.782;2023-06-19T06:44:27;4.90;;;3.40;;
45490;SDS011;31237;45.586;13.782;2023-06-19T06:46:52;4.35;;;3.22;;
45490;SDS011;31237;45.586;13.782;2023-06-19T06:49:19;6.15;;;3.50;;
45490;SDS011;31237;45.586;13.782;2023-06-19T06:51:45;4.60;;;2.78;;
45490;SDS011;31237;45.586;13.782;2023-06-19T06:54:10;5.22;;;3.50;;
45490;SDS011;31237;45.586;13.782;2023-06-19T06:56:36;4.68;;;3.28;;
45490;SDS011;31237;45.586;13.782;2023-06-19T06:59:02;6.65;;;3.63;;
45490;SDS011;31237;45.586;13.782;2023-06-19T07:01:27;5.03;;;3.42;;
45490;SDS011;31237;45.586;13.782;2023-06-19T07:03:53;4.53;;;3.10;;
45490;SDS011;31237;45.586;13.782;2023-06-19T07:06:19;5.55;;;3.30;;
45490;SDS011;31237;45.586;13.782;2023-06-19T07:08:45;5.13;;;3.30;;
45490;SDS011;31237;45.586;13.782;2023-06-19T07:11:12;6.28;;;3.55;;
45490;SDS011;31237;45.586;13.782;2023-06-19T07:13:38;4.60;;;3.20;;
45490;SDS011;31237;45.586;13.782;2023-06-19T07:16:06;9.52;;;3.80;;
45490;SDS011;31237;45.586;13.782;2023-06-19T07:18:32;4.60;;;3.20;;
45490;SDS011;31237;45.586;13.782;2023-06-19T07:21:00;5.25;;;3.50;;
45490;SDS011;31237;45.586;13.782;2023-06-19T07:23:27;4.80;;;3.38;;
45490;SDS011;31237;45.586;13.782;2023-06-19T07:26:02;4.82;;;3.08;;
45490;SDS011;31237;45.586;13.782;2023-06-19T07:28:28;5.45;;;3.78;;
45490;SDS011;31237;45.586;13.782;2023-06-19T07:30:55;5.03;;;3.45;;
45490;SDS011;31237;45.586;13.782;2023-06-19T07:33:20;6.38;;;4.55;;
45490;SDS011;31237;45.586;13.782;2023-06-19T07:35:46;5.03;;;3.50;;
45490;SDS011;31237;45.586;13.782;2023-06-19T07:38:12;6.28;;;3.55;;
45490;SDS011;31237;45.586;13.782;2023-06-19T07:40:38;5.53;;;3.60;;
45490;SDS011;31237;45.586;13.782;2023-06-19T07:43:04;6.03;;;4.10;;
45490;SDS011;31237;45.586;13.782;2023-06-19T07:45:29;7.57;;;4.03;;
45490;SDS011;31237;45.586;13.782;2023-06-19T07:47:55;4.75;;;3.63;;
45490;SDS011;31237;45.586;13.782;2023-06-19T07:50:22;5.03;;;3.78;;
45490;SDS011;31237;45.586;13.782;2023-06-19T07:52:48;8.48;;;3.75;;
45490;SDS011;31237;45.586;13.782;2023-06-19T07:55:13;6.05;;;4.53;;
45490;SDS011;31237;45.586;13.782;2023-06-19T07:57:39;5.15;;;3.55;;
45490;SDS011;31237;45.586;13.782;2023-06-19T08:00:05;6.18;;;4.13;;
45490;SDS011;31237;45.586;13.782;2023-06-19T08:02:37;5.43;;;4.07;;
45490;SDS011;31237;45.586;13.782;2023-06-19T08:05:06;6.68;;;4.43;;
45490;SDS011;31237;45.586;13.782;2023-06-19T08:07:33;6.78;;;4.10;;
45490;SDS011;31237;45.586;13.782;2023-06-19T08:09:59;5.72;;;4.00;;
45490;SDS011;31237;45.586;13.782;2023-06-19T08:12:25;5.85;;;4.65;;
45490;SDS011;31237;45.586;13.782;2023-06-19T08:14:51;9.43;;;4.10;;
45490;SDS011;31237;45.586;13.782;2023-06-19T08:17:16;6.75;;;4.13;;
45490;SDS011;31237;45.586;13.782;2023-06-19T08:19:42;6.55;;;4.32;;
45490;SDS011;31237;45.586;13.782;2023-06-19T08:22:08;7.47;;;4.45;;
45490;SDS011;31237;45.586;13.782;2023-06-19T08:24:34;5.28;;;3.72;;
45490;SDS011;31237;45.586;13.782;2023-06-19T08:27:01;7.22;;;4.00;;
45490;SDS011;31237;45.586;13.782;2023-06-19T08:29:27;5.82;;;3.80;;
45490;SDS011;31237;45.586;13.782;2023-06-19T08:31:53;6.63;;;3.90;;
45490;SDS011;31237;45.586;13.782;2023-06-19T08:34:19;5.78;;;3.92;;
45490;SDS011;31237;45.586;13.782;2023-06-19T08:36:44;6.75;;;4.15;;
45490;SDS011;31237;45.586;13.782;2023-06-19T08:39:10;6.90;;;3.97;;
45490;SDS011;31237;45.586;13.782;2023-06-19T08:41:36;5.65;;;3.97;;
45490;SDS011;31237;45.586;13.782;2023-06-19T08:44:03;5.30;;;3.80;;
45490;SDS011;31237;45.586;13.782;2023-06-19T08:46:30;5.78;;;4.07;;
45490;SDS011;31237;45.586;13.782;2023-06-19T08:48:55;4.45;;;3.58;;
45490;SDS011;31237;45.586;13.782;2023-06-19T08:51:22;4.60;;;3.55;;
45490;SDS011;31237;45.586;13.782;2023-06-19T08:53:48;7.95;;;4.40;;
45490;SDS011;31237;45.586;13.782;2023-06-19T08:56:19;5.50;;;3.47;;
45490;SDS011;31237;45.586;13.782;2023-06-19T08:58:44;4.47;;;3.35;;
45490;SDS011;31237;45.586;13.782;2023-06-19T09:01:10;4.63;;;3.45;;
45490;SDS011;31237;45.586;13.782;2023-06-19T09:03:39;6.03;;;3.90;;
45490;SDS011;31237;45.586;13.782;2023-06-19T09:06:08;5.47;;;4.53;;
45490;SDS011;31237;45.586;13.782;2023-06-19T09:08:34;5.32;;;3.90;;
45490;SDS011;31237;45.586;13.782;2023-06-19T09:11:00;5.05;;;3.85;;
45490;SDS011;31237;45.586;13.782;2023-06-19T09:13:27;5.88;;;3.90;;
45490;SDS011;31237;45.586;13.782;2023-06-19T09:15:58;8.05;;;3.75;;
45490;SDS011;31237;45.586;13.782;2023-06-19T09:18:24;5.07;;;3.70;;
45490;SDS011;31237;45.586;13.782;2023-06-19T09:20:52;4.63;;;3.58;;
45490;SDS011;31237;45.586;13.782;2023-06-19T09:23:19;5.03;;;3.63;;
45490;SDS011;31237;45.586;13.782;2023-06-19T09:25:47;4.65;;;3.53;;
45490;SDS011;31237;45.586;13.782;2023-06-19T09:28:20;4.60;;;3.60;;
45490;SDS011;31237;45.586;13.782;2023-06-19T09:30:53;5.18;;;3.60;;
45490;SDS011;31237;45.586;13.782;2023-06-19T09:33:28;5.15;;;3.92;;
45490;SDS011;31237;45.586;13.782;2023-06-19T09:35:58;5.47;;;3.63;;
45490;SDS011;31237;45.586;13.782;2023-06-19T09:38:25;5.07;;;3.55;;
45490;SDS011;31237;45.586;13.782;2023-06-19T09:40:52;4.93;;;3.55;;
45490;SDS011;31237;45.586;13.782;2023-06-19T09:43:21;7.40;;;3.97;;
45490;SDS011;31237;45.586;13.782;2023-06-19T09:45:49;6.68;;;3.92;;
45490;SDS011;31237;45.586;13.782;2023-06-19T09:48:19;5.82;;;3.33;;
45490;SDS011;31237;45.586;13.782;2023-06-19T09:50:50;6.22;;;3.75;;
45490;SDS011;31237;45.586;13.782;2023-06-19T09:53:19;4.95;;;3.83;;
45490;SDS011;31237;45.586;13.782;2023-06-19T09:55:47;4.68;;;3.80;;
45490;SDS011;31237;45.586;13.782;2023-06-19T09:58:15;6.55;;;4.63;;
45490;SDS011;31237;45.586;13.782;2023-06-19T10:00:45;4.13;;;3.53;;
45490;SDS011;31237;45.586;13.782;2023-06-19T10:03:12;5.15;;;3.75;;
45490;SDS011;31237;45.586;13.782;2023-06-19T10:05:39;7.65;;;3.80;;
45490;SDS011;31237;45.586;13.782;2023-06-19T10:08:05;5.18;;;3.78;;
45490;SDS011;31237;45.586;13.782;2023-06-19T10:10:31;5.97;;;3.97;;
45490;SDS011;31237;45.586;13.782;2023-06-19T10:13:12;4.82;;;3.65;;
45490;SDS011;31237;45.586;13.782;2023-06-19T10:15:43;4.97;;;3.58;;
45490;SDS011;31237;45.586;13.782;2023-06-19T10:18:16;5.70;;;3.22;;
45490;SDS011;31237;45.586;13.782;2023-06-19T10:23:13;5.45;;;3.70;;
45490;SDS011;31237;45.586;13.782;2023-06-19T10:25:44;6.50;;;3.72;;
45490;SDS011;31237;45.586;13.782;2023-06-19T10:28:23;5.15;;;3.80;;
45490;SDS011;31237;45.586;13.782;2023-06-19T10:31:12;5.57;;;3.80;;
45490;SDS011;31237;45.586;13.782;2023-06-19T10:33:37;5.25;;;3.67;;
45490;SDS011;31237;45.586;13.782;2023-06-19T10:36:15;5.18;;;3.20;;
45490;SDS011;31237;45.586;13.782;2023-06-19T10:38:45;4.90;;;3.40;;
45490;SDS011;31237;45.586;13.782;2023-06-19T10:41:24;4.85;;;3.40;;
45490;SDS011;31237;45.586;13.782;2023-06-19T10:46:22;5.05;;;3.45;;
45490;SDS011;31237;45.586;13.782;2023-06-19T10:48:49;5.95;;;3.42;;
45490;SDS011;31237;45.586;13.782;2023-06-19T10:51:19;6.63;;;3.83;;
45490;SDS011;31237;45.586;13.782;2023-06-19T10:53:45;5.57;;;3.45;;
45490;SDS011;31237;45.586;13.782;2023-06-19T10:56:11;6.50;;;3.70;;
45490;SDS011;31237;45.586;13.782;2023-06-19T10:58:36;5.07;;;3.40;;
45490;SDS011;31237;45.586;13.782;2023-06-19T11:01:02;5.85;;;3.38;;
45490;SDS011;31237;45.586;13.782;2023-06-19T11:03:31;4.43;;;3.30;;
45490;SDS011;31237;45.586;13.782;2023-06-19T11:05:57;4.75;;;3.42;;
45490;SDS011;31237;45.586;13.782;2023-06-19T11:08:23;5.88;;;3.72;;
45490;SDS011;31237;45.586;13.782;2023-06-19T11:10:49;5.45;;;3.65;;
45490;SDS011;31237;45.586;13.782;2023-06-19T11:13:16;4.43;;;3.78;;
45490;SDS011;31237;45.586;13.782;2023-06-19T11:15:44;5.90;;;3.80;;
45490;SDS011;31237;45.586;13.782;2023-06-19T11:18:10;4.95;;;3.47;;
45490;SDS011;31237;45.586;13.782;2023-06-19T11:20:46;4.53;;;3.20;;
45490;SDS011;31237;45.586;13.782;2023-06-19T11:23:25;5.57;;;3.60;;
45490;SDS011;31237;45.586;13.782;2023-06-19T11:25:52;6.13;;;3.70;;
45490;SDS011;31237;45.586;13.782;2023-06-19T11:28:18;5.18;;;3.45;;
45490;SDS011;31237;45.586;13.782;2023-06-19T11:30:47;5.30;;;3.78;;
45490;SDS011;31237;45.586;13.782;2023-06-19T11:33:15;4.97;;;3.83;;
45490;SDS011;31237;45.586;13.782;2023-06-19T11:35:49;6.80;;;3.75;;
45490;SDS011;31237;45.586;13.782;2023-06-19T11:38:19;4.55;;;3.47;;
45490;SDS011;31237;45.586;13.782;2023-06-19T11:40:46;5.40;;;3.60;;
45490;SDS011;31237;45.586;13.782;2023-06-19T11:43:22;4.72;;;3.30;;
45490;SDS011;31237;45.586;13.782;2023-06-19T11:45:49;5.20;;;3.83;;
45490;SDS011;31237;45.586;13.782;2023-06-19T11:48:25;4.88;;;3.28;;
45490;SDS011;31237;45.586;13.782;2023-06-19T11:50:52;4.95;;;3.40;;
45490;SDS011;31237;45.586;13.782;2023-06-19T11:53:21;6.07;;;4.00;;
45490;SDS011;31237;45.586;13.782;2023-06-19T11:55:49;4.80;;;3.65;;
45490;SDS011;31237;45.586;13.782;2023-06-19T11:58:15;4.85;;;3.22;;
45490;SDS011;31237;45.586;13.782;2023-06-19T12:00:41;4.53;;;3.47;;
45490;SDS011;31237;45.586;13.782;2023-06-19T12:03:08;5.18;;;3.50;;
45490;SDS011;31237;45.586;13.782;2023-06-19T12:05:34;3.33;;;2.90;;
45490;SDS011;31237;45.586;13.782;2023-06-19T12:08:01;5.45;;;3.40;;
45490;SDS011;31237;45.586;13.782;2023-06-19T12:10:28;4.70;;;3.70;;
45490;SDS011;31237;45.586;13.782;2023-06-19T12:12:54;5.13;;;3.75;;
45490;SDS011;31237;45.586;13.782;2023-06-19T12:15:19;5.03;;;3.95;;
45490;SDS011;31237;45.586;13.782;2023-06-19T12:17:45;5.35;;;4.25;;
45490;SDS011;31237;45.586;13.782;2023-06-19T12:20:11;5.07;;;3.80;;
45490;SDS011;31237;45.586;13.782;2023-06-19T12:22:40;7.47;;;4.13;;
45490;SDS011;31237;45.586;13.782;2023-06-19T12:25:07;4.45;;;3.47;;
45490;SDS011;31237;45.586;13.782;2023-06-19T12:27:33;5.40;;;4.15;;
45490;SDS011;31237;45.586;13.782;2023-06-19T12:29:59;5.18;;;3.85;;
45490;SDS011;31237;45.586;13.782;2023-06-19T12:32:25;5.50;;;4.10;;
45490;SDS011;31237;45.586;13.782;2023-06-19T12:34:51;5.47;;;3.80;;
45490;SDS011;31237;45.586;13.782;2023-06-19T12:37:19;5.90;;;4.00;;
45490;SDS011;31237;45.586;13.782;2023-06-19T12:39:45;6.22;;;4.22;;
45490;SDS011;31237;45.586;13.782;2023-06-19T12:42:12;6.53;;;4.32;;
45490;SDS011;31237;45.586;13.782;2023-06-19T12:44:39;9.77;;;4.80;;
45490;SDS011;31237;45.586;13.782;2023-06-19T12:47:05;6.05;;;4.28;;
45490;SDS011;31237;45.586;13.782;2023-06-19T12:49:31;5.75;;;4.10;;
45490;SDS011;31237;45.586;13.782;2023-06-19T12:51:57;5.70;;;4.43;;
45490;SDS011;31237;45.586;13.782;2023-06-19T12:54:23;5.45;;;4.28;;
45490;SDS011;31237;45.586;13.782;2023-06-19T12:56:49;7.70;;;4.45;;
45490;SDS011;31237;45.586;13.782;2023-06-19T12:59:15;9.38;;;5.28;;
45490;SDS011;31237;45.586;13.782;2023-06-19T13:01:41;5.78;;;4.40;;
45490;SDS011;31237;45.586;13.782;2023-06-19T13:04:08;6.13;;;5.13;;
45490;SDS011;31237;45.586;13.782;2023-06-19T13:06:35;7.47;;;5.53;;
45490;SDS011;31237;45.586;13.782;2023-06-19T13:09:02;9.30;;;6.05;;
45490;SDS011;31237;45.586;13.782;2023-06-19T13:11:30;8.82;;;6.18;;
45490;SDS011;31237;45.586;13.782;2023-06-19T13:13:56;8.35;;;6.38;;
45490;SDS011;31237;45.586;13.782;2023-06-19T13:16:22;10.88;;;7.47;;
45490;SDS011;31237;45.586;13.782;2023-06-19T13:18:50;9.65;;;7.22;;
45490;SDS011;31237;45.586;13.782;2023-06-19T13:21:16;10.88;;;7.90;;
45490;SDS011;31237;45.586;13.782;2023-06-19T13:23:42;9.75;;;7.40;;
45490;SDS011;31237;45.586;13.782;2023-06-19T13:26:08;11.55;;;8.48;;
45490;SDS011;31237;45.586;13.782;2023-06-19T13:28:34;9.32;;;7.78;;
45490;SDS011;31237;45.586;13.782;2023-06-19T13:30:59;9.55;;;7.68;;
45490;SDS011;31237;45.586;13.782;2023-06-19T13:33:25;11.10;;;7.93;;
45490;SDS011;31237;45.586;13.782;2023-06-19T13:35:51;8.75;;;7.65;;
45490;SDS011;31237;45.586;13.782;2023-06-19T13:38:17;10.57;;;7.30;;
45490;SDS011;31237;45.586;13.782;2023-06-19T13:40:43;10.48;;;8.00;;
45490;SDS011;31237;45.586;13.782;2023-06-19T13:43:09;10.70;;;7.80;;
45490;SDS011;31237;45.586;13.782;2023-06-19T13:45:35;10.57;;;8.75;;
45490;SDS011;31237;45.586;13.782;2023-06-19T13:48:03;9.73;;;7.20;;
45490;SDS011;31237;45.586;13.782;2023-06-19T13:50:30;10.32;;;6.78;;
45490;SDS011;31237;45.586;13.782;2023-06-19T13:52:57;11.18;;;7.45;;
45490;SDS011;31237;45.586;13.782;2023-06-19T13:55:23;10.20;;;7.25;;
45490;SDS011;31237;45.586;13.782;2023-06-19T13:57:49;11.00;;;8.40;;
45490;SDS011;31237;45.586;13.782;2023-06-19T14:00:14;11.50;;;8.40;;
45490;SDS011;31237;45.586;13.782;2023-06-19T14:02:40;10.20;;;8.38;;
45490;SDS011;31237;45.586;13.782;2023-06-19T14:05:07;11.73;;;7.72;;
45490;SDS011;31237;45.586;13.782;2023-06-19T14:07:34;12.77;;;9.02;;
45490;SDS011;31237;45.586;13.782;2023-06-19T14:10:00;12.60;;;8.80;;
45490;SDS011;31237;45.586;13.782;2023-06-19T14:12:27;17.98;;;10.10;;
45490;SDS011;31237;45.586;13.782;2023-06-19T14:14:53;17.42;;;11.48;;
45490;SDS011;31237;45.586;13.782;2023-06-19T14:17:21;18.33;;;12.07;;
45490;SDS011;31237;45.586;13.782;2023-06-19T14:19:47;15.50;;;11.73;;
45490;SDS011;31237;45.586;13.782;2023-06-19T14:22:13;13.15;;;10.73;;
45490;SDS011;31237;45.586;13.782;2023-06-19T14:24:39;18.23;;;11.45;;
45490;SDS011;31237;45.586;13.782;2023-06-19T14:27:04;12.80;;;10.32;;
45490;SDS011;31237;45.586;13.782;2023-06-19T14:29:30;14.02;;;10.85;;
45490;SDS011;31237;45.586;13.782;2023-06-19T14:31:56;12.25;;;9.73;;
45490;SDS011;31237;45.586;13.782;2023-06-19T14:34:22;13.55;;;9.85;;
45490;SDS011;31237;45.586;13.782;2023-06-19T14:36:47;13.43;;;9.98;;
45490;SDS011;31237;45.586;13.782;2023-06-19T14:39:13;12.38;;;9.85;;
45490;SDS011;31237;45.586;13.782;2023-06-19T14:41:39;13.30;;;9.70;;